createdAt,value
2018-07-09T00:01:18.018Z,18.60
2018-07-09T00:03:47.345Z,18.53
2018-07-09T00:06:16.668Z,18.37
2018-07-09T00:08:45.933Z,18.51
2018-07-09T00:11:15.231Z,18.46
2018-07-09T00:13:44.550Z,18.42
2018-07-09T00:16:13.842Z,18.29
2018-07-09T00:18:43.120Z,18.31
2018-07-09T00:21:12.666Z,18.25
2018-07-09T00:23:43.669Z,18.20
2018-07-09T00:26:12.962Z,18.32
2018-07-09T00:28:42.368Z,18.29
2018-07-09T00:31:11.627Z,18.07
2018-07-09T00:33:40.900Z,18.22
2018-07-09T00:36:09.965Z,18.18
2018-07-09T00:38:39.282Z,18.17
2018-07-09T00:41:08.715Z,18.09
2018-07-09T00:43:38.298Z,18.05
2018-07-09T00:46:07.759Z,18.06
2018-07-09T00:48:37.058Z,18.11
2018-07-09T00:51:06.442Z,18.16
2018-07-09T00:53:35.974Z,18.10
2018-07-09T00:56:05.550Z,18.11
2018-07-09T00:58:34.913Z,18.17
2018-07-09T01:01:04.714Z,18.05
2018-07-09T01:03:34.321Z,17.87
2018-07-09T01:06:04.376Z,18.03
2018-07-09T01:08:33.942Z,18.01
2018-07-09T01:11:20.345Z,18.02
2018-07-09T01:13:49.956Z,18.02
2018-07-09T01:16:19.702Z,18.04
2018-07-09T01:18:49.356Z,17.90
2018-07-09T01:21:18.847Z,17.63
2018-07-09T01:23:48.466Z,17.59
2018-07-09T01:26:18.305Z,17.61
2018-07-09T01:28:47.909Z,17.69
2018-07-09T01:31:17.462Z,17.73
2018-07-09T01:33:46.995Z,17.72
2018-07-09T01:36:16.723Z,17.54
2018-07-09T01:38:46.590Z,17.58
2018-07-09T01:41:16.226Z,17.54
2018-07-09T01:43:46.368Z,17.56
2018-07-09T01:46:16.091Z,17.48
2018-07-09T01:48:45.865Z,17.31
2018-07-09T01:51:15.640Z,17.32
2018-07-09T01:53:45.227Z,17.47
2018-07-09T01:56:14.646Z,17.56
2018-07-09T01:58:44.432Z,17.56
2018-07-09T02:01:13.842Z,17.53
2018-07-09T02:03:43.428Z,17.36
2018-07-09T02:06:12.967Z,17.14
2018-07-09T02:08:42.686Z,17.33
2018-07-09T02:11:12.407Z,17.20
2018-07-09T02:13:41.755Z,17.25
2018-07-09T02:16:11.226Z,17.15
2018-07-09T02:18:40.667Z,17.06
2018-07-09T02:21:10.201Z,17.02
2018-07-09T02:23:39.850Z,17.04
2018-07-09T02:26:09.755Z,17.06
2018-07-09T02:28:38.924Z,17.02
2018-07-09T02:31:08.456Z,16.99
2018-07-09T02:33:38.801Z,16.84
2018-07-09T02:36:08.418Z,16.79
2018-07-09T02:38:38.056Z,17.01
2018-07-09T02:41:07.786Z,17.22
2018-07-09T02:43:37.216Z,17.23
2018-07-09T02:46:06.864Z,17.05
2018-07-09T02:48:36.363Z,17.00
2018-07-09T02:51:05.965Z,17.03
2018-07-09T02:53:35.514Z,17.04
2018-07-09T02:56:05.072Z,17.05
2018-07-09T02:58:34.784Z,17.17
2018-07-09T03:01:04.464Z,17.14
2018-07-09T03:03:34.472Z,17.17
2018-07-09T03:06:03.960Z,17.14
2018-07-09T03:08:33.671Z,17.10
2018-07-09T03:11:03.303Z,17.13
2018-07-09T03:13:33.119Z,17.22
2018-07-09T03:16:03.115Z,17.15
2018-07-09T03:18:32.730Z,17.04
2018-07-09T03:21:02.140Z,17.03
2018-07-09T03:23:31.846Z,17.14
2018-07-09T03:26:01.293Z,17.13
2018-07-09T03:28:30.985Z,17.00
2018-07-09T03:31:00.559Z,17.02
2018-07-09T03:33:30.086Z,17.23
2018-07-09T03:35:59.663Z,17.24
2018-07-09T03:38:29.401Z,17.05
2018-07-09T03:40:59.044Z,16.93
2018-07-09T03:43:28.718Z,17.00
2018-07-09T03:45:58.170Z,16.90
2018-07-09T03:48:27.809Z,17.07
2018-07-09T03:50:57.160Z,17.15
2018-07-09T03:53:26.284Z,16.98
2018-07-09T03:55:55.972Z,17.11
2018-07-09T03:58:25.447Z,17.37
2018-07-09T04:00:55.222Z,17.32
2018-07-09T04:03:24.809Z,17.22
2018-07-09T04:05:54.343Z,17.04
2018-07-09T04:08:24.202Z,17.12
2018-07-09T04:10:54.096Z,17.23
2018-07-09T04:13:23.910Z,17.15
2018-07-09T04:15:53.451Z,17.21
2018-07-09T04:18:25.048Z,17.36
2018-07-09T04:20:56.597Z,17.42
2018-07-09T04:23:26.544Z,17.42
2018-07-09T04:25:55.734Z,17.44
2018-07-09T04:28:25.226Z,17.51
2018-07-09T04:30:54.552Z,17.46
2018-07-09T04:33:23.895Z,17.41
2018-07-09T04:35:53.178Z,17.36
2018-07-09T04:38:22.473Z,17.30
2018-07-09T04:40:51.794Z,17.46
2018-07-09T04:43:21.256Z,17.47
2018-07-09T04:45:50.570Z,17.63
2018-07-09T04:48:19.869Z,17.58
2018-07-09T04:50:49.199Z,17.65
2018-07-09T04:53:18.574Z,17.62
2018-07-09T04:55:47.849Z,17.69
2018-07-09T04:58:17.258Z,17.77
2018-07-09T05:00:46.763Z,17.92
2018-07-09T05:03:16.293Z,18.15
2018-07-09T05:05:45.606Z,18.43
2018-07-09T05:08:15.320Z,18.56
2018-07-09T05:10:44.628Z,18.65
2018-07-09T05:13:13.973Z,18.72
2018-07-09T05:15:43.319Z,18.63
2018-07-09T05:18:12.624Z,18.66
2018-07-09T05:20:42.108Z,18.63
2018-07-09T05:23:11.469Z,18.94
2018-07-09T05:25:40.768Z,19.10
2018-07-09T05:28:10.125Z,19.36
2018-07-09T05:30:39.686Z,19.20
2018-07-09T05:33:10.078Z,19.27
2018-07-09T05:35:39.405Z,19.22
2018-07-09T05:38:08.742Z,19.42
2018-07-09T05:40:38.179Z,19.43
2018-07-09T05:43:07.256Z,19.34
2018-07-09T05:45:36.765Z,19.36
2018-07-09T05:48:07.678Z,19.29
2018-07-09T05:50:37.104Z,19.33
2018-07-09T05:53:06.636Z,19.38
2018-07-09T05:55:36.104Z,19.37
2018-07-09T05:58:05.415Z,19.54
2018-07-09T06:00:34.831Z,19.59
2018-07-09T06:03:04.370Z,19.72
2018-07-09T06:05:33.802Z,19.96
2018-07-09T06:08:03.085Z,20.17
2018-07-09T06:10:32.399Z,20.40
2018-07-09T06:13:01.851Z,20.68
2018-07-09T06:15:31.362Z,20.82
2018-07-09T06:18:00.786Z,20.80
2018-07-09T06:20:30.176Z,20.82
2018-07-09T06:22:59.502Z,20.96
2018-07-09T06:25:28.860Z,20.94
2018-07-09T06:27:59.345Z,20.83
2018-07-09T06:30:28.670Z,20.78
2018-07-09T06:32:58.020Z,20.91
2018-07-09T06:35:27.039Z,20.96
2018-07-09T06:37:56.420Z,21.24
2018-07-09T06:40:25.778Z,21.40
2018-07-09T06:42:55.113Z,21.45
2018-07-09T06:45:24.411Z,21.53
2018-07-09T06:47:53.727Z,21.68
2018-07-09T06:50:23.097Z,21.46
2018-07-09T06:52:52.663Z,21.73
2018-07-09T06:55:21.983Z,21.65
2018-07-09T06:57:51.330Z,21.72
2018-07-09T07:00:21.240Z,21.49
2018-07-09T07:02:50.566Z,21.59
2018-07-09T07:05:19.935Z,21.71
2018-07-09T07:07:49.375Z,21.33
2018-07-09T07:10:18.706Z,21.15
2018-07-09T07:12:47.998Z,21.34
2018-07-09T07:15:17.360Z,21.21
2018-07-09T07:17:46.640Z,21.51
2018-07-09T07:20:15.979Z,21.47
2018-07-09T07:22:45.963Z,21.34
2018-07-09T07:25:15.442Z,21.50
2018-07-09T07:27:44.773Z,21.57
2018-07-09T07:30:14.120Z,21.70
2018-07-09T07:32:43.399Z,21.45
2018-07-09T07:35:12.667Z,21.63
2018-07-09T07:37:42.005Z,21.78
2018-07-09T07:40:11.381Z,21.96
2018-07-09T07:42:40.783Z,22.22
2018-07-09T07:45:10.883Z,22.49
2018-07-09T07:47:40.183Z,22.68
2018-07-09T07:50:09.545Z,23.05
2018-07-09T07:52:38.831Z,22.97
2018-07-09T07:55:08.147Z,23.36
2018-07-09T07:57:37.459Z,23.16
2018-07-09T08:00:07.672Z,22.24
2018-07-09T08:02:37.077Z,22.35
2018-07-09T08:05:06.627Z,22.28
2018-07-09T08:07:36.785Z,22.44
2018-07-09T08:10:07.330Z,22.63
2018-07-09T08:15:06.273Z,22.81
2018-07-09T08:17:35.596Z,22.96
2018-07-09T08:20:05.508Z,23.19
2018-07-09T08:22:34.819Z,23.04
2018-07-09T08:25:04.241Z,22.53
2018-07-09T08:27:33.192Z,22.71
2018-07-09T08:30:02.783Z,22.62
2018-07-09T08:32:32.084Z,22.69
2018-07-09T08:35:06.790Z,22.59
2018-07-09T08:37:36.133Z,22.69
2018-07-09T08:40:05.646Z,22.71
2018-07-09T08:42:35.024Z,22.40
2018-07-09T08:45:04.624Z,22.57
2018-07-09T08:47:34.347Z,22.80
2018-07-09T08:50:04.393Z,23.11
2018-07-09T08:52:33.782Z,23.69
2018-07-09T08:55:03.051Z,24.27
2018-07-09T08:57:32.402Z,24.47
2018-07-09T09:00:01.722Z,24.27
2018-07-09T09:02:31.321Z,24.55
2018-07-09T09:05:00.696Z,24.24
2018-07-09T09:07:30.193Z,23.93
2018-07-09T09:09:59.507Z,24.00
2018-07-09T09:12:29.115Z,24.16
2018-07-09T09:14:58.494Z,24.29
2018-07-09T09:17:27.811Z,24.39
2018-07-09T09:19:57.376Z,24.46
2018-07-09T09:22:26.688Z,24.64
2018-07-09T09:24:56.012Z,24.93
2018-07-09T09:27:25.356Z,24.97
2018-07-09T09:29:54.710Z,25.04
2018-07-09T09:32:23.983Z,25.00
2018-07-09T09:34:53.665Z,25.34
2018-07-09T09:37:23.024Z,25.48
2018-07-09T09:39:52.758Z,25.69
2018-07-09T09:42:22.058Z,25.93
2018-07-09T09:44:51.358Z,26.22
2018-07-09T09:47:20.676Z,26.76
2018-07-09T09:49:49.974Z,26.86
2018-07-09T09:52:19.364Z,27.27
2018-07-09T09:54:48.639Z,27.12
2018-07-09T09:57:18.772Z,27.34
2018-07-09T09:59:48.116Z,27.44
2018-07-09T10:02:17.429Z,27.22
2018-07-09T10:04:47.139Z,27.17
2018-07-09T10:07:16.505Z,26.97
2018-07-09T10:09:45.844Z,26.45
2018-07-09T10:12:15.306Z,26.95
2018-07-09T10:14:44.661Z,26.92
2018-07-09T10:17:14.041Z,27.12
2018-07-09T10:19:43.787Z,27.50
2018-07-09T10:22:13.092Z,27.72
2018-07-09T10:24:42.374Z,27.81
2018-07-09T10:27:11.734Z,28.04
2018-07-09T10:29:41.017Z,28.64
2018-07-09T10:32:10.296Z,28.93
2018-07-09T10:34:39.619Z,28.90
2018-07-09T10:37:08.945Z,28.97
2018-07-09T10:39:38.365Z,28.50
2018-07-09T10:42:08.700Z,28.34
2018-07-09T10:44:38.127Z,27.98
2018-07-09T10:47:07.611Z,26.93
2018-07-09T10:49:37.060Z,26.93
2018-07-09T10:52:06.600Z,27.22
2018-07-09T10:54:36.123Z,27.39
2018-07-09T10:57:05.545Z,27.96
2018-07-09T10:59:34.907Z,28.28
2018-07-09T11:02:04.285Z,28.21
2018-07-09T11:04:34.020Z,28.49
2018-07-09T11:07:03.791Z,28.20
2018-07-09T11:09:33.276Z,27.28
2018-07-09T11:12:02.628Z,27.57
2018-07-09T11:14:31.955Z,28.05
2018-07-09T11:17:01.258Z,28.54
2018-07-09T11:19:30.584Z,28.93
2018-07-09T11:21:59.944Z,29.13
2018-07-09T11:24:29.281Z,29.45
2018-07-09T11:26:58.658Z,29.68
2018-07-09T11:29:27.948Z,29.17
2018-07-09T11:31:57.251Z,29.22
2018-07-09T11:34:26.656Z,28.39
2018-07-09T11:36:56.188Z,27.97
2018-07-09T11:39:26.693Z,28.50
2018-07-09T11:41:56.176Z,28.21
2018-07-09T11:44:25.580Z,28.73
2018-07-09T11:46:54.978Z,28.79
2018-07-09T11:49:24.414Z,29.12
2018-07-09T11:51:53.705Z,28.97
2018-07-09T11:54:23.077Z,27.72
2018-07-09T11:56:52.390Z,27.44
2018-07-09T11:59:21.717Z,27.03
2018-07-09T12:01:51.028Z,26.87
2018-07-09T12:04:20.342Z,27.09
2018-07-09T12:06:49.893Z,27.34
2018-07-09T12:09:19.367Z,27.18
2018-07-09T12:11:49.004Z,26.63
2018-07-09T12:14:18.326Z,26.22
2018-07-09T12:16:47.639Z,26.48
2018-07-09T12:19:17.036Z,26.80
2018-07-09T12:21:46.403Z,27.11
2018-07-09T12:24:15.682Z,26.89
2018-07-09T12:26:45.075Z,26.97
2018-07-09T12:29:14.511Z,27.02
2018-07-09T12:31:43.700Z,27.34
2018-07-09T12:34:13.084Z,27.87
2018-07-09T12:36:42.371Z,27.85
2018-07-09T12:39:11.684Z,27.51
2018-07-09T12:41:41.047Z,26.90
2018-07-09T12:44:10.328Z,26.73
2018-07-09T12:46:39.723Z,26.49
2018-07-09T12:49:09.129Z,26.10
2018-07-09T12:51:38.565Z,26.04
2018-07-09T12:54:07.838Z,26.24
2018-07-09T12:56:37.751Z,26.74
2018-07-09T12:59:07.227Z,26.52
2018-07-09T13:01:36.756Z,26.53
2018-07-09T13:04:06.075Z,26.03
2018-07-09T13:06:35.371Z,26.11
2018-07-09T13:09:05.573Z,26.26
2018-07-09T13:11:34.931Z,26.10
2018-07-09T13:14:04.337Z,25.75
2018-07-09T13:16:33.705Z,25.58
2018-07-09T13:19:03.477Z,25.71
2018-07-09T13:21:32.792Z,25.61
2018-07-09T13:24:02.396Z,25.59
2018-07-09T13:26:31.946Z,25.33
2018-07-09T13:29:01.365Z,25.10
2018-07-09T13:31:30.671Z,25.30
2018-07-09T13:34:00.056Z,25.17
2018-07-09T13:36:29.374Z,24.77
2018-07-09T13:38:58.959Z,24.89
2018-07-09T13:41:28.814Z,24.91
2018-07-09T13:43:58.098Z,25.35
2018-07-09T13:46:27.536Z,25.15
2018-07-09T13:48:56.638Z,25.28
2018-07-09T13:51:25.974Z,25.29
2018-07-09T13:53:55.330Z,25.56
2018-07-09T13:56:24.645Z,25.46
2018-07-09T13:58:54.296Z,24.59
2018-07-09T14:01:23.603Z,24.50
2018-07-09T14:03:52.994Z,24.59
2018-07-09T14:06:22.290Z,24.90
2018-07-09T14:08:51.672Z,24.90
2018-07-09T14:11:21.045Z,24.99
2018-07-09T14:13:50.403Z,25.14
2018-07-09T14:16:19.762Z,25.25
2018-07-09T14:18:49.287Z,25.24
2018-07-09T14:21:18.683Z,25.00
2018-07-09T14:23:47.964Z,24.98
2018-07-09T14:26:17.848Z,25.41
2018-07-09T14:28:47.151Z,25.07
2018-07-09T14:31:16.445Z,24.66
2018-07-09T14:33:45.794Z,24.71
2018-07-09T14:36:15.115Z,24.66
2018-07-09T14:38:44.456Z,24.29
2018-07-09T14:41:13.831Z,23.93
2018-07-09T14:43:43.200Z,23.71
2018-07-09T14:46:12.697Z,23.51
2018-07-09T14:48:42.477Z,23.48
2018-07-09T14:51:11.977Z,23.07
2018-07-09T14:53:41.341Z,22.98
2018-07-09T14:56:10.641Z,23.46
2018-07-09T14:58:39.941Z,23.53
2018-07-09T15:01:09.271Z,23.73
2018-07-09T15:03:38.625Z,23.98
2018-07-09T15:06:08.289Z,24.03
2018-07-09T15:08:37.621Z,23.88
2018-07-09T15:11:08.010Z,23.76
2018-07-09T15:13:37.352Z,23.83
2018-07-09T15:16:06.707Z,23.81
2018-07-09T15:18:36.074Z,24.07
2018-07-09T15:21:05.463Z,24.05
2018-07-09T15:23:34.739Z,24.32
2018-07-09T15:26:04.069Z,24.31
2018-07-09T15:28:33.370Z,23.99
2018-07-09T15:31:02.778Z,23.86
2018-07-09T15:33:32.918Z,23.73
2018-07-09T15:36:03.369Z,23.51
2018-07-09T15:38:32.582Z,23.59
2018-07-09T15:41:02.018Z,23.98
2018-07-09T15:44:04.854Z,23.81
2018-07-09T15:46:34.050Z,23.81
2018-07-09T15:49:03.363Z,23.81
2018-07-09T15:51:32.650Z,23.54
2018-07-09T15:54:02.711Z,23.36
2018-07-09T15:56:32.067Z,23.62
2018-07-09T15:59:01.627Z,23.38
2018-07-09T16:01:31.315Z,22.77
2018-07-09T16:04:00.688Z,22.77
2018-07-09T16:06:30.068Z,22.94
2018-07-09T16:08:59.627Z,23.16
2018-07-09T16:11:29.159Z,23.47
2018-07-09T16:13:58.502Z,23.57
2018-07-09T16:16:28.314Z,23.44
2018-07-09T16:18:57.639Z,23.31
2018-07-09T16:21:26.969Z,23.09
2018-07-09T16:23:56.346Z,22.76
2018-07-09T16:26:25.684Z,22.47
2018-07-09T16:28:55.123Z,22.31
2018-07-09T16:31:24.464Z,22.36
2018-07-09T16:33:53.776Z,21.96
2018-07-09T16:36:23.282Z,21.91
2018-07-09T16:38:52.971Z,22.24
2018-07-09T16:41:22.339Z,22.44
2018-07-09T16:43:51.626Z,22.59
2018-07-09T16:46:20.991Z,22.40
2018-07-09T16:48:50.376Z,22.51
2018-07-09T16:51:19.663Z,22.32
2018-07-09T16:53:49.053Z,22.29
2018-07-09T16:56:18.535Z,22.28
2018-07-09T16:58:47.959Z,22.29
2018-07-09T17:01:17.557Z,21.70
2018-07-09T17:03:46.956Z,21.66
2018-07-09T17:06:16.352Z,21.83
2018-07-09T17:08:45.713Z,21.82
2018-07-09T17:11:15.050Z,21.94
2018-07-09T17:13:44.479Z,21.63
2018-07-09T17:16:13.866Z,21.53
2018-07-09T17:18:43.191Z,21.43
2018-07-09T17:21:12.488Z,21.47
2018-07-09T17:23:42.614Z,21.51
2018-07-09T17:26:12.202Z,21.42
2018-07-09T17:28:41.798Z,21.48
2018-07-09T17:31:11.181Z,21.47
2018-07-09T17:33:40.524Z,21.46
2018-07-09T17:36:10.048Z,21.49
2018-07-09T17:38:39.536Z,21.64
2018-07-09T17:41:09.251Z,21.39
2018-07-09T17:43:38.594Z,21.31
2018-07-09T17:46:08.136Z,21.03
2018-07-09T17:48:37.520Z,20.94
2018-07-09T17:51:06.923Z,20.78
2018-07-09T17:53:36.275Z,21.17
2018-07-09T17:56:05.708Z,21.19
2018-07-09T17:58:35.160Z,21.14
2018-07-09T18:01:04.531Z,21.02
2018-07-09T18:03:33.950Z,21.00
2018-07-09T18:06:03.324Z,20.91
2018-07-09T18:08:32.783Z,20.86
2018-07-09T18:11:02.175Z,20.83
2018-07-09T18:13:31.581Z,20.77
2018-07-09T18:16:00.918Z,20.87
2018-07-09T18:18:30.346Z,20.99
2018-07-09T18:20:59.973Z,20.74
2018-07-09T18:23:29.332Z,20.72
2018-07-09T18:25:58.710Z,20.71
2018-07-09T18:28:28.111Z,20.35
2018-07-09T18:30:58.328Z,20.57
2018-07-09T18:33:27.728Z,20.51
2018-07-09T18:35:57.064Z,20.63
2018-07-09T18:38:26.421Z,20.23
2018-07-09T18:40:55.781Z,20.24
2018-07-09T18:43:25.115Z,20.38
2018-07-09T18:45:54.518Z,20.37
2018-07-09T18:48:23.825Z,20.36
2018-07-09T18:50:53.131Z,20.21
2018-07-09T18:53:22.625Z,20.16
2018-07-09T18:55:52.008Z,20.16
2018-07-09T18:58:22.385Z,20.25
2018-07-09T19:00:51.851Z,20.06
2018-07-09T19:03:21.206Z,19.81
2018-07-09T19:06:07.645Z,19.77
2018-07-09T19:08:37.959Z,19.67
2018-07-09T19:11:07.578Z,19.57
2018-07-09T19:13:37.577Z,19.49
2018-07-09T19:16:07.326Z,19.45
2018-07-09T19:18:54.159Z,19.35
2018-07-09T19:21:41.927Z,19.35
2018-07-09T19:24:11.336Z,19.25
2018-07-09T19:26:40.099Z,19.40
2018-07-09T19:29:07.874Z,19.55
2018-07-09T19:31:36.003Z,19.79
2018-07-09T19:34:03.888Z,19.73
2018-07-09T19:36:31.735Z,19.67
2018-07-09T19:38:59.497Z,19.53
2018-07-09T19:41:27.263Z,19.48
2018-07-09T19:43:55.078Z,19.66
2018-07-09T19:46:22.914Z,19.58
2018-07-09T19:48:50.684Z,19.62
2018-07-09T19:51:18.835Z,19.73
2018-07-09T19:53:46.880Z,19.67
2018-07-09T19:56:14.688Z,19.71
2018-07-09T19:58:42.570Z,19.54
2018-07-09T20:01:10.463Z,19.54
2018-07-09T20:03:38.292Z,19.28
2018-07-09T20:06:06.095Z,19.54
2018-07-09T20:08:39.149Z,19.46
2018-07-09T20:13:17.738Z,19.50
2018-07-09T20:15:51.850Z,19.49
2018-07-09T20:18:19.727Z,19.21
2018-07-09T20:20:47.547Z,19.51
2018-07-09T20:23:15.487Z,19.45
2018-07-09T20:25:43.332Z,19.44
2018-07-09T20:28:11.113Z,19.48
2018-07-09T20:30:38.988Z,19.71
2018-07-09T20:33:06.796Z,19.78
2018-07-09T20:35:34.597Z,19.70
2018-07-09T20:38:02.477Z,19.61
2018-07-09T20:40:30.365Z,19.44
2018-07-09T20:42:58.152Z,19.32
2018-07-09T20:45:25.941Z,19.29
2018-07-09T20:47:53.761Z,19.14
2018-07-09T20:50:21.522Z,19.21
2018-07-09T20:52:49.333Z,19.04
2018-07-09T20:55:17.188Z,19.11
2018-07-09T20:57:44.960Z,19.16
2018-07-09T21:00:12.784Z,19.15
2018-07-09T21:02:40.526Z,19.18
2018-07-09T21:05:08.609Z,19.17
2018-07-09T21:07:36.496Z,19.13
2018-07-09T21:10:04.296Z,18.97
2018-07-09T21:12:32.063Z,18.84
2018-07-09T21:15:00.043Z,18.67
2018-07-09T21:17:27.753Z,18.70
2018-07-09T21:19:55.552Z,18.77
2018-07-09T21:22:23.481Z,18.94
2018-07-09T21:24:51.257Z,18.97
2018-07-09T21:27:19.081Z,18.83
2018-07-09T21:29:46.918Z,18.88
2018-07-09T21:32:14.881Z,19.00
2018-07-09T21:34:42.740Z,19.04
2018-07-09T21:37:10.541Z,19.02
2018-07-09T21:39:38.338Z,18.98
2018-07-09T21:42:06.095Z,18.85
2018-07-09T21:44:33.946Z,18.91
2018-07-09T21:47:01.855Z,18.63
2018-07-09T21:49:30.008Z,18.69
2018-07-09T21:51:57.996Z,18.78
2018-07-09T21:54:26.098Z,18.54
2018-07-09T21:56:53.954Z,18.48
2018-07-09T21:59:21.855Z,18.05
2018-07-09T22:01:49.669Z,18.33
2018-07-09T22:04:17.593Z,18.31
2018-07-09T22:06:45.776Z,18.27
2018-07-09T22:09:13.649Z,18.34
2018-07-09T22:11:41.462Z,18.33
2018-07-09T22:14:09.334Z,18.34
2018-07-09T22:16:37.162Z,18.69
2018-07-09T22:19:05.171Z,18.45
2018-07-09T22:21:32.997Z,18.69
2018-07-09T22:24:01.063Z,18.61
2018-07-09T22:26:28.882Z,18.47
2018-07-09T22:28:57.058Z,18.52
2018-07-09T22:31:26.393Z,18.55
2018-07-09T22:33:55.857Z,18.58
2018-07-09T22:36:25.252Z,18.53
2018-07-09T22:38:54.717Z,18.64
2018-07-09T22:41:24.200Z,18.65
2018-07-09T22:44:10.619Z,18.54
2018-07-09T22:46:39.906Z,18.73
2018-07-09T22:49:09.301Z,18.87
2018-07-09T22:51:38.931Z,18.89
2018-07-09T22:54:08.531Z,18.64
2018-07-09T22:56:37.965Z,18.47
2018-07-09T22:59:07.459Z,18.41
2018-07-09T23:01:37.103Z,18.58
2018-07-09T23:04:06.433Z,18.65
2018-07-09T23:06:35.952Z,18.68
2018-07-09T23:10:23.384Z,18.31
2018-07-09T23:13:24.489Z,17.96
2018-07-09T23:17:11.039Z,18.11
2018-07-09T23:21:02.632Z,17.93
2018-07-09T23:23:30.647Z,17.48
2018-07-09T23:25:58.486Z,17.52
2018-07-09T23:28:26.699Z,17.63
2018-07-09T23:30:54.747Z,17.63
2018-07-09T23:33:22.543Z,17.40
2018-07-09T23:35:50.533Z,17.50
2018-07-09T23:38:18.471Z,17.34
2018-07-09T23:40:46.430Z,17.31
2018-07-09T23:43:14.374Z,17.32
2018-07-09T23:45:42.248Z,17.37
2018-07-09T23:48:10.171Z,17.70
2018-07-09T23:50:38.591Z,17.74
2018-07-09T23:53:06.402Z,17.70
2018-07-09T23:55:37.334Z,17.52
